Latest Weather Observations for Oodnadatta

IDS60801

Issued at 4:05 pm CST Tuesday 2 September 2014 (issued every 30 minutes, with the page automatically refreshed every 10 minutes)

About weather observations | Map of weather stations | Latest weather observations for SA | Other Formats
Station Details ID: 017043 Name: OODNADATTA AIRPORT Lat: -27.56 Lon: 135.45 Height: 116.5 m
Data from the previous 72 hours. | See also: Recent months at Oodnadatta
Date/Time
CST
Temp
°C
App
Temp
°C
Dew
Point
Rel
Hum
%
Delta-T
°C
Wind Press
QNH
hPa
Press
MSL
hPa
Rain
since 9 am
mm
Dir
 
Spd
km/h
Gust
km/h
Spd
kts
Gust
kts
02/04:00pm 19.1 15.6 -3.1 22 9.1 ESE 6 20 3 11 1024.2 - 0.0
02/03:30pm 18.5 13.7 -2.4 24 8.7 ESE 13 19 7 10 1024.4 - 0.0
02/03:00pm 18.2 13.1 -2.1 25 8.5 SSE 15 26 8 14 1024.5 1024.2 0.0
02/02:30pm 17.8 12.3 -1.9 26 8.3 SSE 17 26 9 14 1025.0 - 0.0
02/02:00pm 17.9 12.4 -1.9 26 8.3 SSE 17 30 9 16 1025.4 - 0.0
02/01:30pm 17.6 12.2 -1.6 27 8.1 SE 17 24 9 13 1025.8 - 0.0
02/01:00pm 17.3 11.6 -0.4 30 7.6 ESE 19 26 10 14 1026.3 - 0.0
02/12:30pm 16.7 11.4 -0.5 31 7.3 ESE 17 28 9 15 1027.1 - 0.0
02/12:00pm 15.8 10.8 1.2 37 6.4 SE 17 24 9 13 1027.3 1027.1 0.0
02/11:30am 15.4 10.4 1.2 38 6.2 SE 17 32 9 17 1027.5 - 0.0
02/11:00am 15.0 9.5 1.9 41 5.8 SE 20 30 11 16 1028.1 - 0.0
02/10:30am 14.2 6.7 -1.4 34 6.4 SE 28 35 15 19 1028.3 - 0.0
02/10:00am 13.3 5.4 1.3 44 5.2 SE 32 39 17 21 1028.4 - 0.0
02/09:30am 13.0 5.8 3.1 51 4.4 SSE 30 43 16 23 1028.5 - 0.0
02/09:00am 11.7 4.7 4.2 60 3.4 SSE 30 37 16 20 1028.6 1028.4 0.0
02/08:30am 10.8 4.6 4.5 65 2.8 SSE 26 33 14 18 1028.1 - 0.0
02/08:00am 9.7 3.9 4.5 70 2.3 SSE 24 33 13 18 1027.6 - 0.0
02/07:30am 8.9 2.4 4.5 74 2.0 S 28 35 15 19 1027.1 - 0.0
02/07:00am 8.4 2.6 4.2 75 1.8 S 24 30 13 16 1026.8 - 0.0
02/06:30am 8.4 3.5 4.2 75 1.8 S 19 24 10 13 1026.4 - 0.0
02/06:00am 8.7 3.8 4.3 74 1.9 S 19 24 10 13 1026.1 1025.9 0.0
02/05:30am 9.3 5.2 4.5 72 2.1 S 15 22 8 12 1025.9 - 0.0
02/05:00am 9.6 4.6 4.6 71 2.2 S 20 24 11 13 1025.5 - 0.0
02/04:30am 9.9 4.9 4.5 69 2.4 S 20 26 11 14 1025.1 - 0.0
02/04:00am 10.4 4.6 4.5 67 2.6 S 24 30 13 16 1024.8 - 0.0
02/03:30am 10.7 4.5 4.4 65 2.8 S 26 32 14 17 1024.6 - 0.0
02/03:00am 11.3 4.0 4.5 63 3.1 S 32 41 17 22 1024.5 1024.2 0.0
02/02:30am 11.8 3.9 4.1 59 3.5 S 35 44 19 24 1024.4 - 0.0
02/02:00am 12.4 3.5 5.1 61 3.4 S 41 52 22 28 1024.2 - 0.0
02/01:30am 13.2 5.1 5.1 58 3.8 S 37 50 20 27 1024.1 - 0.0
02/01:00am 13.8 6.0 4.9 55 4.2 S 35 44 19 24 1024.0 - 0.0
02/12:30am 14.4 7.0 5.0 53 4.4 S 33 41 18 22 1023.6 - 0.0
02/12:00am 15.0 7.7 4.7 50 4.8 S 32 44 17 24 1023.6 1023.3 0.0
 
Date/Time
CST
Temp
°C
App
Temp
°C
Dew
Point
Rel
Hum
%
Delta-T
°C
Wind Press
QNH
hPa
Press
MSL
hPa
Rain
since 9 am
mm
Dir
 
Spd
km/h
Gust
km/h
Spd
kts
Gust
kts
01/11:30pm 15.4 8.2 5.0 50 4.9 S 32 41 17 22 1023.5 - 0.0
01/11:00pm 15.7 9.8 5.6 51 4.9 S 26 35 14 19 1023.6 - 0.0
01/10:30pm 16.2 9.2 5.8 50 5.0 S 32 39 17 21 1023.3 - 0.0
01/10:00pm 16.5 9.5 5.8 49 5.2 S 32 39 17 21 1023.2 - 0.0
01/09:30pm 16.9 9.2 5.5 47 5.5 S 35 43 19 23 1022.9 - 0.0
01/09:00pm 17.4 9.0 5.7 46 5.7 S 39 50 21 27 1022.7 1022.4 0.0
01/08:30pm 17.9 9.7 6.4 47 5.7 SSW 39 50 21 27 1022.1 - 0.0
01/08:00pm 18.5 9.8 7.6 49 5.6 S 43 56 23 30 1021.4 - 0.0
01/07:50pm 18.9 10.7 6.7 45 6.1 S 39 57 21 31 1021.3 - 0.0
01/07:30pm 19.5 10.2 5.9 41 6.8 S 44 56 24 30 1020.6 - 0.0
01/07:00pm 20.5 12.6 4.5 35 7.8 S 35 43 19 23 1019.6 - 0.0
01/06:30pm 21.5 12.4 4.1 32 8.5 S 41 52 22 28 1018.7 - 0.0
01/06:00pm 23.1 16.0 6.4 34 8.6 SSW 33 48 18 26 1017.9 1017.7 0.0
01/05:30pm 24.1 16.8 7.3 34 8.8 SSW 35 46 19 25 1017.3 - 0.0
01/05:00pm 24.9 18.2 8.0 34 9.0 SSW 33 43 18 23 1016.9 - 0.0
01/04:31pm 25.0 18.4 7.6 33 9.2 S 32 59 17 32 1016.4 - 0.0
01/04:30pm 24.8 18.1 7.4 33 9.2 SSW 32 43 17 23 1016.6 - 0.0
01/04:00pm 25.2 18.3 7.3 32 9.5 S 33 44 18 24 1016.5 - 0.0
01/03:30pm 25.4 18.7 8.0 33 9.3 SSW 33 43 18 23 1016.2 - 0.0
01/03:12pm 25.7 18.6 8.2 33 9.4 SSW 35 41 19 22 1016.3 - 0.0
01/03:00pm 25.9 18.4 8.0 32 9.6 S 37 52 20 28 1016.2 1015.9 0.0
01/02:52pm 25.5 18.8 8.1 33 9.4 S 33 52 18 28 1016.2 - 0.0
01/02:30pm 25.4 18.4 8.4 34 9.2 S 35 46 19 25 1016.1 - 0.0
01/02:00pm 26.4 20.1 8.8 33 9.6 S 32 46 17 25 1015.7 - 0.0
01/01:30pm 25.2 17.8 8.2 34 9.1 S 37 48 20 26 1016.3 - 0.0
01/01:00pm 25.2 18.3 8.7 35 8.9 S 35 48 19 26 1016.4 - 0.0
01/12:30pm 24.3 16.9 8.3 36 8.6 S 37 46 20 25 1016.8 - 0.0
01/12:00pm 24.3 15.7 8.3 36 8.6 S 43 54 23 29 1016.8 1016.5 0.0
01/11:30am 24.5 16.3 8.0 35 8.8 S 41 52 22 28 1017.0 - 0.0
01/11:00am 23.8 15.0 8.2 37 8.3 S 44 54 24 29 1016.9 - 0.0
01/10:30am 23.2 14.6 8.1 38 8.0 S 43 54 23 29 1016.9 - 0.0
01/10:00am 21.3 12.9 7.2 40 7.3 S 41 50 22 27 1016.7 - 0.0
01/09:30am 20.5 13.1 4.9 36 7.7 S 33 43 18 23 1016.4 - 0.0
01/09:00am 17.7 9.7 1.7 34 7.2 S 33 43 18 23 1015.9 1015.6 0.0
01/08:30am 16.8 10.1 -1.3 29 7.6 SW 24 33 13 18 1015.6 - 0.0
01/08:00am 15.5 10.0 -5.0 24 7.9 WNW 15 17 8 9 1015.0 - 0.0
01/07:31am 15.4 6.6 -4.5 25 7.7 SSW 33 52 18 28 1015.0 - 0.0
01/07:30am 14.0 4.0 -4.7 27 7.1 SSW 39 52 21 28 1015.2 - 0.0
01/07:29am 13.0 5.1 -5.1 28 6.7 SW 28 46 15 25 1015.1 - 0.0
01/07:00am 11.5 6.0 -5.4 30 6.1 NNW 15 19 8 10 1013.8 - 0.0
01/06:30am 12.1 7.0 -5.4 29 6.4 NW 13 17 7 9 1013.2 - 0.0
01/06:00am 12.8 6.9 -5.2 28 6.7 NW 17 19 9 10 1012.8 1012.5 0.0
01/05:30am 13.1 7.3 -5.0 28 6.7 NNW 17 20 9 11 1012.5 - 0.0
01/05:00am 12.2 6.3 -5.3 29 6.4 NNW 17 19 9 10 1012.6 - 0.0
01/04:30am 13.2 7.4 -4.9 28 6.8 NNW 17 19 9 10 1012.5 - 0.0
01/04:00am 14.4 8.6 -4.8 26 7.3 NNW 17 19 9 10 1012.4 - 0.0
01/03:30am 14.5 9.1 -4.7 26 7.3 NNW 15 17 8 9 1012.1 - 0.0
01/03:00am 15.7 9.9 -4.8 24 7.9 NNW 17 20 9 11 1012.2 1011.9 0.0
01/02:30am 18.2 11.8 -4.5 21 9.0 N 20 26 11 14 1012.1 - 0.0
01/02:00am 18.4 10.9 -4.3 21 9.1 N 26 33 14 18 1012.1 - 0.0
01/01:30am 19.1 12.4 -4.4 20 9.5 N 22 28 12 15 1012.5 - 0.0
01/01:00am 18.7 12.0 -4.0 21 9.2 N 22 26 12 14 1012.6 - 0.0
01/12:30am 19.2 12.5 -4.3 20 9.5 N 22 28 12 15 1012.9 - 0.0
01/12:00am 19.3 13.2 -4.2 20 9.5 NNE 19 22 10 12 1012.8 1012.5 0.0
 
Date/Time
CST
Temp
°C
App
Temp
°C
Dew
Point
Rel
Hum
%
Delta-T
°C
Wind Press
QNH
hPa
Press
MSL
hPa
Rain
since 9 am
mm
Dir
 
Spd
km/h
Gust
km/h
Spd
kts
Gust
kts
31/11:30pm 19.4 14.0 -4.1 20 9.6 N 15 19 8 10 1013.2 - 0.0
31/11:00pm 19.6 13.5 -3.9 20 9.6 NNE 19 24 10 13 1013.1 - 0.0
31/10:30pm 20.9 14.6 -3.6 19 10.2 NNE 20 24 11 13 1013.3 - 0.0
31/10:00pm 21.4 15.1 -3.9 18 10.5 NNE 20 28 11 15 1013.4 - 0.0
31/09:30pm 21.9 15.6 -4.2 17 10.9 NNE 20 26 11 14 1013.5 - 0.0
31/09:00pm 22.2 16.1 -4.0 17 11.0 NNE 19 24 10 13 1013.6 1013.5 0.0
31/08:30pm 22.8 16.7 -4.3 16 11.3 NNE 19 22 10 12 1013.7 - 0.0
31/08:00pm 23.1 17.0 -4.1 16 11.5 NNE 19 22 10 12 1013.6 - 0.0
31/07:30pm 24.4 18.7 -3.9 15 12.1 NNE 17 20 9 11 1013.4 - 0.0
31/07:00pm 25.1 19.7 -4.2 14 12.5 N 15 17 8 9 1013.4 - 0.0
31/06:30pm 25.2 20.2 -4.2 14 12.6 N 13 15 7 8 1013.3 - 0.0
31/06:00pm 27.6 21.8 -4.3 12 13.9 NNW 17 22 9 12 1013.2 1013.1 0.0
31/05:30pm 28.6 22.8 -4.7 11 14.6 NNW 17 22 9 12 1013.1 - 0.0
31/05:00pm 28.7 22.9 -4.6 11 14.6 NW 17 24 9 13 1013.0 - 0.0
31/04:30pm 29.2 23.1 -4.3 11 14.8 NNW 19 28 10 15 1013.1 - 0.0
31/04:00pm 29.0 23.7 -3.2 12 14.5 NNW 15 28 8 15 1013.1 - 0.0
31/03:30pm 28.8 23.5 -3.4 12 14.4 NNW 15 26 8 14 1013.4 - 0.0
31/03:00pm 28.5 22.8 -3.6 12 14.3 NNW 17 28 9 15 1013.8 1013.7 0.0
31/02:30pm 28.9 22.7 -3.3 12 14.5 N 20 30 11 16 1014.1 - 0.0
31/02:00pm 28.5 21.9 -3.6 12 14.3 NNW 22 35 12 19 1014.5 - 0.0
31/01:30pm 27.8 21.2 -3.1 13 13.8 N 22 37 12 20 1015.0 - 0.0
31/01:00pm 28.2 20.9 -2.8 13 14.0 NNW 26 35 14 19 1015.6 - 0.0
31/12:30pm 26.5 19.3 -2.2 15 12.9 N 26 35 14 19 1016.3 - 0.0
31/12:00pm 26.0 18.0 -2.6 15 12.7 NNW 30 41 16 22 1016.8 1016.7 0.0
31/11:30am 25.0 16.7 -1.7 17 12.0 NNW 32 43 17 23 1017.4 - 0.0
31/11:00am 24.8 17.1 -0.4 19 11.6 N 30 39 16 21 1017.9 - 0.0
31/10:30am 23.0 15.6 -0.5 21 10.6 N 28 35 15 19 1018.3 - 0.0
31/10:00am 22.2 15.6 -0.5 22 10.2 N 24 33 13 18 1018.6 - 0.0
31/09:30am 20.9 14.0 0.2 25 9.3 N 26 35 14 19 1018.9 - 0.0
31/09:00am 19.4 13.6 -0.1 27 8.6 N 20 26 11 14 1018.9 1018.9 0.0
31/08:30am 15.6 11.4 -1.0 32 6.9 NNW 11 13 6 7 1018.8 - 0.0
31/08:00am 12.8 8.8 -1.9 36 5.9 NNW 9 13 5 7 1018.6 - 0.0
31/07:30am 10.0 5.1 -3.6 38 5.1 NW 13 13 7 7 1018.3 - 0.0
31/07:00am 10.1 5.9 -3.9 37 5.2 NNW 9 13 5 7 1017.9 - 0.0
31/06:30am 11.9 7.6 -1.3 40 5.3 N 11 15 6 8 1017.7 - 0.0
31/06:00am 12.5 8.3 -1.1 39 5.5 NNW 11 17 6 9 1017.5 1017.4 0.0
31/05:30am 13.5 7.6 -0.9 37 5.9 NNE 20 26 11 14 1017.3 - 0.0
31/05:00am 13.6 7.9 -0.8 37 5.9 NNE 19 22 10 12 1017.2 - 0.0
31/04:30am 13.3 8.7 -1.1 37 5.9 NNE 13 15 7 8 1017.1 - 0.0
31/04:00am 13.6 8.9 -1.6 35 6.1 NNE 13 17 7 9 1016.9 - 0.0
31/03:30am 14.8 9.1 -0.9 34 6.5 NNE 19 22 10 12 1017.1 - 0.0
31/03:00am 13.9 8.1 -1.7 34 6.3 NE 19 20 10 11 1017.1 1017.0 0.0
31/02:30am 14.1 8.3 -1.5 34 6.4 NE 19 22 10 12 1017.3 - 0.0
31/02:00am 12.3 9.9 -3.5 33 6.0 CALM 0 6 0 3 1017.8 - 0.0
31/01:30am 12.6 9.4 -3.2 33 6.1 NNE 4 9 2 5 1018.1 - 0.0
31/01:00am 12.0 7.8 -4.2 32 6.1 NNE 9 11 5 6 1018.5 - 0.0
31/12:30am 12.4 8.4 -6.0 27 6.7 NNE 7 9 4 5 1018.6 - 0.0
31/12:00am 14.5 10.0 -3.3 29 7.0 NNE 11 13 6 7 1018.9 1018.9 0.0
 
Date/Time
CST
Temp
°C
App
Temp
°C
Dew
Point
Rel
Hum
%
Delta-T
°C
Wind Press
QNH
hPa
Press
MSL
hPa
Rain
since 9 am
mm
Dir
 
Spd
km/h
Gust
km/h
Spd
kts
Gust
kts
30/11:30pm 15.1 10.2 -3.7 27 7.4 NNE 13 17 7 9 1019.0 - 0.0
30/11:00pm 15.9 10.6 -3.6 26 7.7 NNE 15 17 8 9 1019.2 - 0.0
30/10:30pm 18.0 12.4 -2.8 24 8.6 NNE 17 19 9 10 1019.3 - 0.0
30/10:00pm 17.6 12.7 -3.2 24 8.5 N 13 15 7 8 1019.5 - 0.0
30/09:30pm 17.3 12.6 -4.6 22 8.6 N 11 13 6 7 1019.6 - 0.0
30/09:00pm 19.5 14.5 -4.0 20 9.6 N 13 15 7 8 1019.4 1019.4 0.0
30/08:30pm 19.8 14.9 -3.8 20 9.7 NNE 13 13 7 7 1019.2 - 0.0
30/08:00pm 19.5 14.8 -5.4 18 9.9 N 11 11 6 6 1019.1 - 0.0
30/07:30pm 20.3 16.3 -5.5 17 10.3 N 7 9 4 5 1018.9 - 0.0
30/07:00pm 21.8 17.9 -5.1 16 11.0 N 7 9 4 5 1018.6 - 0.0
30/06:30pm 22.9 19.0 -4.2 16 11.4 NNE 7 9 4 5 1018.4 - 0.0
30/06:00pm 24.1 19.4 -5.0 14 12.1 N 11 17 6 9 1018.2 1018.2 0.0
30/05:30pm 24.7 20.4 -4.6 14 12.4 N 9 13 5 7 1018.2 - 0.0
30/05:00pm 25.0 19.7 -3.4 15 12.3 ENE 15 19 8 10 1018.0 - 0.0
30/04:30pm 25.3 20.7 -4.1 14 12.6 N 11 19 6 10 1018.0 - 0.0

Other Formats:

Comma delimited format used in spreadsheet applications
http://www.bom.gov.au/fwo/IDS60801/IDS60801.94476.axf

JavaScript Object Notation format (JSON) in row-major order
http://www.bom.gov.au/fwo/IDS60801/IDS60801.94476.json